sensor_id;sensor_type;location;lat;lon;timestamp;P1;durP1;ratioP1;P2;durP2;ratioP2
37451;SDS011;23314;51.114;6.900;2023-01-13T00:01:54;2.63;;;0.90;;
37451;SDS011;23314;51.114;6.900;2023-01-13T00:04:19;0.60;;;0.60;;
37451;SDS011;23314;51.114;6.900;2023-01-13T00:06:44;0.77;;;0.67;;
37451;SDS011;23314;51.114;6.900;2023-01-13T00:09:10;0.57;;;0.57;;
37451;SDS011;23314;51.114;6.900;2023-01-13T00:11:35;0.90;;;0.90;;
37451;SDS011;23314;51.114;6.900;2023-01-13T00:14:00;1.53;;;0.50;;
37451;SDS011;23314;51.114;6.900;2023-01-13T00:16:25;0.43;;;0.43;;
37451;SDS011;23314;51.114;6.900;2023-01-13T00:18:51;1.13;;;0.50;;
37451;SDS011;23314;51.114;6.900;2023-01-13T00:21:17;0.47;;;0.40;;
37451;SDS011;23314;51.114;6.900;2023-01-13T00:23:44;0.67;;;0.50;;
37451;SDS011;23314;51.114;6.900;2023-01-13T00:26:13;1.80;;;0.77;;
37451;SDS011;23314;51.114;6.900;2023-01-13T00:28:43;2.73;;;1.33;;
37451;SDS011;23314;51.114;6.900;2023-01-13T00:31:10;0.53;;;0.53;;
37451;SDS011;23314;51.114;6.900;2023-01-13T00:33:37;0.70;;;0.60;;
37451;SDS011;23314;51.114;6.900;2023-01-13T00:36:03;0.70;;;0.70;;
37451;SDS011;23314;51.114;6.900;2023-01-13T00:38:30;1.57;;;0.80;;
37451;SDS011;23314;51.114;6.900;2023-01-13T00:40:57;0.50;;;0.50;;
37451;SDS011;23314;51.114;6.900;2023-01-13T00:43:24;1.60;;;0.50;;
37451;SDS011;23314;51.114;6.900;2023-01-13T00:45:51;1.20;;;0.80;;
37451;SDS011;23314;51.114;6.900;2023-01-13T00:48:18;0.63;;;0.60;;
37451;SDS011;23314;51.114;6.900;2023-01-13T00:50:44;0.90;;;0.80;;
37451;SDS011;23314;51.114;6.900;2023-01-13T00:53:10;2.13;;;0.60;;
37451;SDS011;23314;51.114;6.900;2023-01-13T00:55:36;0.50;;;0.50;;
37451;SDS011;23314;51.114;6.900;2023-01-13T00:58:02;0.50;;;0.50;;
37451;SDS011;23314;51.114;6.900;2023-01-13T01:00:31;0.50;;;0.50;;
37451;SDS011;23314;51.114;6.900;2023-01-13T01:02:57;0.53;;;0.53;;
37451;SDS011;23314;51.114;6.900;2023-01-13T01:05:22;0.90;;;0.37;;
37451;SDS011;23314;51.114;6.900;2023-01-13T01:07:47;0.57;;;0.50;;
37451;SDS011;23314;51.114;6.900;2023-01-13T01:10:13;1.57;;;0.53;;
37451;SDS011;23314;51.114;6.900;2023-01-13T01:12:38;0.60;;;0.60;;
37451;SDS011;23314;51.114;6.900;2023-01-13T01:15:04;0.47;;;0.47;;
37451;SDS011;23314;51.114;6.900;2023-01-13T01:17:31;0.80;;;0.60;;
37451;SDS011;23314;51.114;6.900;2023-01-13T01:19:57;1.83;;;0.80;;
37451;SDS011;23314;51.114;6.900;2023-01-13T01:22:23;2.03;;;0.90;;
37451;SDS011;23314;51.114;6.900;2023-01-13T01:24:48;2.03;;;0.53;;
37451;SDS011;23314;51.114;6.900;2023-01-13T01:27:13;1.17;;;0.60;;
37451;SDS011;23314;51.114;6.900;2023-01-13T01:29:38;1.00;;;0.60;;
37451;SDS011;23314;51.114;6.900;2023-01-13T01:32:04;1.60;;;0.70;;
37451;SDS011;23314;51.114;6.900;2023-01-13T01:34:29;2.13;;;0.70;;
37451;SDS011;23314;51.114;6.900;2023-01-13T01:36:55;0.60;;;0.60;;
37451;SDS011;23314;51.114;6.900;2023-01-13T01:39:20;2.47;;;0.60;;
37451;SDS011;23314;51.114;6.900;2023-01-13T01:41:45;0.60;;;0.60;;
37451;SDS011;23314;51.114;6.900;2023-01-13T01:47:07;0.90;;;0.87;;
37451;SDS011;23314;51.114;6.900;2023-01-13T01:49:35;1.00;;;0.80;;
37451;SDS011;23314;51.114;6.900;2023-01-13T01:54:41;4.07;;;1.20;;
37451;SDS011;23314;51.114;6.900;2023-01-13T01:57:13;3.10;;;1.10;;
37451;SDS011;23314;51.114;6.900;2023-01-13T01:59:42;3.23;;;1.23;;
37451;SDS011;23314;51.114;6.900;2023-01-13T02:02:08;3.73;;;0.90;;
37451;SDS011;23314;51.114;6.900;2023-01-13T02:04:35;3.03;;;1.27;;
37451;SDS011;23314;51.114;6.900;2023-01-13T02:07:05;2.33;;;0.90;;
37451;SDS011;23314;51.114;6.900;2023-01-13T02:09:30;1.97;;;0.90;;
37451;SDS011;23314;51.114;6.900;2023-01-13T02:11:57;1.70;;;0.80;;
37451;SDS011;23314;51.114;6.900;2023-01-13T02:14:41;4.17;;;1.10;;
37451;SDS011;23314;51.114;6.900;2023-01-13T02:25:21;2.90;;;1.23;;
37451;SDS011;23314;51.114;6.900;2023-01-13T02:28:10;4.27;;;1.17;;
37451;SDS011;23314;51.114;6.900;2023-01-13T02:30:44;4.23;;;0.90;;
37451;SDS011;23314;51.114;6.900;2023-01-13T02:34:16;1.33;;;0.80;;
37451;SDS011;23314;51.114;6.900;2023-01-13T02:36:36;1.90;;;0.70;;
37451;SDS011;23314;51.114;6.900;2023-01-13T02:39:13;5.30;;;0.90;;
37451;SDS011;23314;51.114;6.900;2023-01-13T02:42:06;2.03;;;1.03;;
37451;SDS011;23314;51.114;6.900;2023-01-13T02:44:56;5.37;;;0.83;;
37451;SDS011;23314;51.114;6.900;2023-01-13T02:47:27;3.80;;;1.10;;
37451;SDS011;23314;51.114;6.900;2023-01-13T02:49:57;0.93;;;0.80;;
37451;SDS011;23314;51.114;6.900;2023-01-13T02:52:30;1.30;;;0.60;;
37451;SDS011;23314;51.114;6.900;2023-01-13T02:55:01;2.43;;;0.80;;
37451;SDS011;23314;51.114;6.900;2023-01-13T02:57:32;1.70;;;0.77;;
37451;SDS011;23314;51.114;6.900;2023-01-13T03:00:00;2.23;;;0.63;;
37451;SDS011;23314;51.114;6.900;2023-01-13T03:02:29;1.07;;;0.80;;
37451;SDS011;23314;51.114;6.900;2023-01-13T03:04:58;2.13;;;0.77;;
37451;SDS011;23314;51.114;6.900;2023-01-13T03:07:39;2.60;;;0.90;;
37451;SDS011;23314;51.114;6.900;2023-01-13T03:10:18;2.20;;;1.00;;
37451;SDS011;23314;51.114;6.900;2023-01-13T03:13:05;3.60;;;1.30;;
37451;SDS011;23314;51.114;6.900;2023-01-13T03:18:42;4.37;;;1.37;;
37451;SDS011;23314;51.114;6.900;2023-01-13T03:21:24;3.93;;;1.33;;
37451;SDS011;23314;51.114;6.900;2023-01-13T03:23:59;7.43;;;1.70;;
37451;SDS011;23314;51.114;6.900;2023-01-13T03:32:05;6.97;;;1.40;;
37451;SDS011;23314;51.114;6.900;2023-01-13T03:34:44;6.10;;;2.00;;
37451;SDS011;23314;51.114;6.900;2023-01-13T03:37:13;6.33;;;1.67;;
37451;SDS011;23314;51.114;6.900;2023-01-13T03:39:42;5.57;;;1.73;;
37451;SDS011;23314;51.114;6.900;2023-01-13T03:42:15;5.97;;;1.47;;
37451;SDS011;23314;51.114;6.900;2023-01-13T03:44:49;5.60;;;1.70;;
37451;SDS011;23314;51.114;6.900;2023-01-13T03:47:21;7.57;;;1.70;;
37451;SDS011;23314;51.114;6.900;2023-01-13T03:52:32;7.13;;;1.87;;
37451;SDS011;23314;51.114;6.900;2023-01-13T03:55:02;10.30;;;2.17;;
37451;SDS011;23314;51.114;6.900;2023-01-13T03:57:33;5.60;;;1.63;;
37451;SDS011;23314;51.114;6.900;2023-01-13T04:00:03;5.60;;;1.90;;
37451;SDS011;23314;51.114;6.900;2023-01-13T04:05:20;11.37;;;2.20;;
37451;SDS011;23314;51.114;6.900;2023-01-13T04:08:05;7.13;;;2.37;;
37451;SDS011;23314;51.114;6.900;2023-01-13T04:11:24;10.57;;;1.97;;
37451;SDS011;23314;51.114;6.900;2023-01-13T04:13:36;8.53;;;1.77;;
37451;SDS011;23314;51.114;6.900;2023-01-13T04:16:04;10.87;;;2.73;;
37451;SDS011;23314;51.114;6.900;2023-01-13T04:18:31;9.03;;;1.90;;
37451;SDS011;23314;51.114;6.900;2023-01-13T04:20:58;5.93;;;1.60;;
37451;SDS011;23314;51.114;6.900;2023-01-13T04:23:25;9.37;;;2.37;;
37451;SDS011;23314;51.114;6.900;2023-01-13T04:25:52;10.70;;;2.40;;
37451;SDS011;23314;51.114;6.900;2023-01-13T04:28:18;6.93;;;2.23;;
37451;SDS011;23314;51.114;6.900;2023-01-13T04:30:43;8.00;;;2.10;;
37451;SDS011;23314;51.114;6.900;2023-01-13T04:33:10;7.73;;;2.10;;
37451;SDS011;23314;51.114;6.900;2023-01-13T04:35:36;9.57;;;2.47;;
37451;SDS011;23314;51.114;6.900;2023-01-13T04:38:02;9.47;;;2.20;;
37451;SDS011;23314;51.114;6.900;2023-01-13T04:40:29;15.83;;;3.10;;
37451;SDS011;23314;51.114;6.900;2023-01-13T04:42:55;12.67;;;3.10;;
37451;SDS011;23314;51.114;6.900;2023-01-13T04:45:20;13.63;;;2.77;;
37451;SDS011;23314;51.114;6.900;2023-01-13T04:47:46;12.50;;;2.93;;
37451;SDS011;23314;51.114;6.900;2023-01-13T04:50:12;10.10;;;2.60;;
37451;SDS011;23314;51.114;6.900;2023-01-13T04:52:38;12.73;;;2.83;;
37451;SDS011;23314;51.114;6.900;2023-01-13T04:55:04;10.83;;;2.40;;
37451;SDS011;23314;51.114;6.900;2023-01-13T04:57:31;10.70;;;3.23;;
37451;SDS011;23314;51.114;6.900;2023-01-13T04:59:58;11.97;;;2.43;;
37451;SDS011;23314;51.114;6.900;2023-01-13T05:02:24;12.50;;;2.70;;
37451;SDS011;23314;51.114;6.900;2023-01-13T05:04:49;11.23;;;3.20;;
37451;SDS011;23314;51.114;6.900;2023-01-13T05:07:15;16.53;;;3.00;;
37451;SDS011;23314;51.114;6.900;2023-01-13T05:09:41;10.57;;;2.80;;
37451;SDS011;23314;51.114;6.900;2023-01-13T05:12:06;15.30;;;3.50;;
37451;SDS011;23314;51.114;6.900;2023-01-13T05:14:51;13.60;;;2.93;;
37451;SDS011;23314;51.114;6.900;2023-01-13T05:17:35;17.47;;;3.17;;
37451;SDS011;23314;51.114;6.900;2023-01-13T05:20:00;15.47;;;3.50;;
37451;SDS011;23314;51.114;6.900;2023-01-13T05:22:26;15.73;;;2.87;;
37451;SDS011;23314;51.114;6.900;2023-01-13T05:25:20;12.57;;;2.93;;
37451;SDS011;23314;51.114;6.900;2023-01-13T05:27:47;14.70;;;2.87;;
37451;SDS011;23314;51.114;6.900;2023-01-13T05:30:14;12.77;;;2.73;;
37451;SDS011;23314;51.114;6.900;2023-01-13T05:32:40;18.93;;;3.13;;
37451;SDS011;23314;51.114;6.900;2023-01-13T05:35:06;14.40;;;2.50;;
37451;SDS011;23314;51.114;6.900;2023-01-13T05:37:32;11.87;;;3.20;;
37451;SDS011;23314;51.114;6.900;2023-01-13T05:39:57;11.83;;;2.50;;
37451;SDS011;23314;51.114;6.900;2023-01-13T05:42:41;11.53;;;2.90;;
37451;SDS011;23314;51.114;6.900;2023-01-13T05:45:25;11.90;;;2.67;;
37451;SDS011;23314;51.114;6.900;2023-01-13T05:47:50;8.70;;;2.50;;
37451;SDS011;23314;51.114;6.900;2023-01-13T05:50:16;11.20;;;2.43;;
37451;SDS011;23314;51.114;6.900;2023-01-13T05:52:41;11.17;;;2.53;;
37451;SDS011;23314;51.114;6.900;2023-01-13T05:55:07;11.67;;;2.77;;
37451;SDS011;23314;51.114;6.900;2023-01-13T05:57:33;13.23;;;2.77;;
37451;SDS011;23314;51.114;6.900;2023-01-13T05:59:59;8.13;;;2.20;;
37451;SDS011;23314;51.114;6.900;2023-01-13T06:02:24;8.23;;;2.07;;
37451;SDS011;23314;51.114;6.900;2023-01-13T06:04:50;8.87;;;2.13;;
37451;SDS011;23314;51.114;6.900;2023-01-13T06:07:16;9.17;;;2.27;;
37451;SDS011;23314;51.114;6.900;2023-01-13T06:09:41;12.10;;;2.37;;
37451;SDS011;23314;51.114;6.900;2023-01-13T06:12:08;10.63;;;2.13;;
37451;SDS011;23314;51.114;6.900;2023-01-13T06:14:36;12.13;;;2.53;;
37451;SDS011;23314;51.114;6.900;2023-01-13T06:17:13;7.27;;;1.90;;
37451;SDS011;23314;51.114;6.900;2023-01-13T06:19:40;9.50;;;2.07;;
37451;SDS011;23314;51.114;6.900;2023-01-13T06:22:10;9.47;;;2.67;;
37451;SDS011;23314;51.114;6.900;2023-01-13T06:24:41;7.70;;;2.03;;
37451;SDS011;23314;51.114;6.900;2023-01-13T06:27:09;7.97;;;2.00;;
37451;SDS011;23314;51.114;6.900;2023-01-13T06:29:36;7.30;;;2.10;;
37451;SDS011;23314;51.114;6.900;2023-01-13T06:32:02;8.73;;;1.80;;
37451;SDS011;23314;51.114;6.900;2023-01-13T06:34:32;9.17;;;2.17;;
37451;SDS011;23314;51.114;6.900;2023-01-13T06:36:59;10.60;;;2.07;;
37451;SDS011;23314;51.114;6.900;2023-01-13T06:39:27;8.87;;;1.80;;
37451;SDS011;23314;51.114;6.900;2023-01-13T06:41:55;7.77;;;2.00;;
37451;SDS011;23314;51.114;6.900;2023-01-13T06:44:40;7.20;;;1.83;;
37451;SDS011;23314;51.114;6.900;2023-01-13T06:47:05;6.63;;;2.00;;
37451;SDS011;23314;51.114;6.900;2023-01-13T06:49:31;5.53;;;2.40;;
37451;SDS011;23314;51.114;6.900;2023-01-13T06:51:56;16.93;;;2.60;;
37451;SDS011;23314;51.114;6.900;2023-01-13T06:54:21;7.23;;;2.33;;
37451;SDS011;23314;51.114;6.900;2023-01-13T06:56:47;8.00;;;2.20;;
37451;SDS011;23314;51.114;6.900;2023-01-13T06:59:12;9.80;;;2.40;;
37451;SDS011;23314;51.114;6.900;2023-01-13T07:01:38;8.60;;;2.00;;
37451;SDS011;23314;51.114;6.900;2023-01-13T07:04:03;8.30;;;2.03;;
37451;SDS011;23314;51.114;6.900;2023-01-13T07:06:28;8.53;;;1.80;;
37451;SDS011;23314;51.114;6.900;2023-01-13T07:08:54;11.53;;;1.97;;
37451;SDS011;23314;51.114;6.900;2023-01-13T07:11:19;10.03;;;2.20;;
37451;SDS011;23314;51.114;6.900;2023-01-13T07:13:45;8.40;;;1.90;;
37451;SDS011;23314;51.114;6.900;2023-01-13T07:16:29;10.93;;;2.40;;
37451;SDS011;23314;51.114;6.900;2023-01-13T07:18:54;12.53;;;2.60;;
37451;SDS011;23314;51.114;6.900;2023-01-13T07:21:19;10.67;;;2.43;;
37451;SDS011;23314;51.114;6.900;2023-01-13T07:23:45;9.77;;;2.40;;
37451;SDS011;23314;51.114;6.900;2023-01-13T07:26:12;10.00;;;2.30;;
37451;SDS011;23314;51.114;6.900;2023-01-13T07:28:38;11.87;;;2.73;;
37451;SDS011;23314;51.114;6.900;2023-01-13T07:31:04;9.83;;;2.13;;
37451;SDS011;23314;51.114;6.900;2023-01-13T07:33:30;6.47;;;2.33;;
37451;SDS011;23314;51.114;6.900;2023-01-13T07:36:03;8.93;;;2.47;;
37451;SDS011;23314;51.114;6.900;2023-01-13T07:38:30;10.10;;;1.97;;
37451;SDS011;23314;51.114;6.900;2023-01-13T07:40:56;7.17;;;1.57;;
37451;SDS011;23314;51.114;6.900;2023-01-13T07:43:22;7.17;;;1.90;;
37451;SDS011;23314;51.114;6.900;2023-01-13T07:45:56;10.83;;;2.20;;
37451;SDS011;23314;51.114;6.900;2023-01-13T07:48:23;9.50;;;2.77;;
37451;SDS011;23314;51.114;6.900;2023-01-13T07:50:48;10.17;;;2.50;;
37451;SDS011;23314;51.114;6.900;2023-01-13T07:53:13;7.33;;;2.37;;
37451;SDS011;23314;51.114;6.900;2023-01-13T07:55:42;6.50;;;2.43;;
37451;SDS011;23314;51.114;6.900;2023-01-13T07:58:08;5.80;;;1.90;;
37451;SDS011;23314;51.114;6.900;2023-01-13T08:00:34;7.40;;;2.00;;
37451;SDS011;23314;51.114;6.900;2023-01-13T08:02:59;4.00;;;1.83;;
37451;SDS011;23314;51.114;6.900;2023-01-13T08:05:25;6.63;;;1.60;;
37451;SDS011;23314;51.114;6.900;2023-01-13T08:07:50;3.83;;;1.73;;
37451;SDS011;23314;51.114;6.900;2023-01-13T08:10:16;6.83;;;2.07;;
37451;SDS011;23314;51.114;6.900;2023-01-13T08:12:41;6.57;;;2.37;;
37451;SDS011;23314;51.114;6.900;2023-01-13T08:15:25;8.37;;;1.73;;
37451;SDS011;23314;51.114;6.900;2023-01-13T08:17:50;13.50;;;2.10;;
37451;SDS011;23314;51.114;6.900;2023-01-13T08:20:16;7.87;;;2.63;;
37451;SDS011;23314;51.114;6.900;2023-01-13T08:22:41;5.57;;;1.83;;
37451;SDS011;23314;51.114;6.900;2023-01-13T08:25:06;7.37;;;2.13;;
37451;SDS011;23314;51.114;6.900;2023-01-13T08:27:32;7.47;;;2.10;;
37451;SDS011;23314;51.114;6.900;2023-01-13T08:29:57;8.40;;;2.30;;
37451;SDS011;23314;51.114;6.900;2023-01-13T08:32:23;6.77;;;1.87;;
37451;SDS011;23314;51.114;6.900;2023-01-13T08:34:48;7.23;;;2.53;;
37451;SDS011;23314;51.114;6.900;2023-01-13T08:37:13;12.40;;;2.50;;
37451;SDS011;23314;51.114;6.900;2023-01-13T08:39:39;11.27;;;2.50;;
37451;SDS011;23314;51.114;6.900;2023-01-13T08:42:04;7.97;;;2.10;;
37451;SDS011;23314;51.114;6.900;2023-01-13T08:44:31;13.27;;;2.73;;
37451;SDS011;23314;51.114;6.900;2023-01-13T08:46:57;10.27;;;2.83;;
37451;SDS011;23314;51.114;6.900;2023-01-13T08:49:23;9.47;;;2.40;;
37451;SDS011;23314;51.114;6.900;2023-01-13T08:51:49;8.90;;;2.53;;
37451;SDS011;23314;51.114;6.900;2023-01-13T08:54:15;12.43;;;2.60;;
37451;SDS011;23314;51.114;6.900;2023-01-13T08:56:42;7.37;;;2.37;;
37451;SDS011;23314;51.114;6.900;2023-01-13T08:59:10;8.60;;;2.40;;
37451;SDS011;23314;51.114;6.900;2023-01-13T09:01:37;10.77;;;2.97;;
37451;SDS011;23314;51.114;6.900;2023-01-13T09:04:03;12.57;;;3.07;;
37451;SDS011;23314;51.114;6.900;2023-01-13T09:06:31;13.53;;;3.27;;
37451;SDS011;23314;51.114;6.900;2023-01-13T09:08:56;12.70;;;3.30;;
37451;SDS011;23314;51.114;6.900;2023-01-13T09:11:28;18.30;;;3.20;;
37451;SDS011;23314;51.114;6.900;2023-01-13T09:14:20;11.87;;;2.77;;
37451;SDS011;23314;51.114;6.900;2023-01-13T09:16:47;15.90;;;3.17;;
37451;SDS011;23314;51.114;6.900;2023-01-13T09:19:12;16.00;;;3.60;;
37451;SDS011;23314;51.114;6.900;2023-01-13T09:21:38;16.07;;;3.63;;
37451;SDS011;23314;51.114;6.900;2023-01-13T09:24:03;19.83;;;4.93;;
37451;SDS011;23314;51.114;6.900;2023-01-13T09:26:28;14.17;;;3.83;;
37451;SDS011;23314;51.114;6.900;2023-01-13T09:28:54;15.03;;;4.03;;
37451;SDS011;23314;51.114;6.900;2023-01-13T09:31:19;18.63;;;4.03;;
37451;SDS011;23314;51.114;6.900;2023-01-13T09:33:44;13.23;;;3.70;;
37451;SDS011;23314;51.114;6.900;2023-01-13T09:36:28;16.47;;;3.87;;
37451;SDS011;23314;51.114;6.900;2023-01-13T09:38:54;16.77;;;3.70;;
37451;SDS011;23314;51.114;6.900;2023-01-13T09:41:26;15.07;;;3.97;;
37451;SDS011;23314;51.114;6.900;2023-01-13T09:47:32;10.70;;;3.60;;
37451;SDS011;23314;51.114;6.900;2023-01-13T09:52:56;23.63;;;4.20;;
37451;SDS011;23314;51.114;6.900;2023-01-13T09:55:24;16.83;;;3.63;;
37451;SDS011;23314;51.114;6.900;2023-01-13T09:57:54;15.57;;;3.90;;
37451;SDS011;23314;51.114;6.900;2023-01-13T10:00:20;18.20;;;4.03;;
37451;SDS011;23314;51.114;6.900;2023-01-13T10:06:30;19.40;;;4.13;;
37451;SDS011;23314;51.114;6.900;2023-01-13T10:08:40;18.87;;;4.00;;
37451;SDS011;23314;51.114;6.900;2023-01-13T10:11:20;19.23;;;3.50;;
37451;SDS011;23314;51.114;6.900;2023-01-13T10:27:53;16.93;;;3.87;;
37451;SDS011;23314;51.114;6.900;2023-01-13T10:30:24;11.97;;;3.00;;
37451;SDS011;23314;51.114;6.900;2023-01-13T10:33:28;15.43;;;4.30;;
37451;SDS011;23314;51.114;6.900;2023-01-13T10:43:36;20.23;;;4.17;;
37451;SDS011;23314;51.114;6.900;2023-01-13T10:46:05;20.53;;;4.23;;
37451;SDS011;23314;51.114;6.900;2023-01-13T10:51:17;17.00;;;3.80;;
37451;SDS011;23314;51.114;6.900;2023-01-13T10:56:18;21.10;;;4.00;;
37451;SDS011;23314;51.114;6.900;2023-01-13T10:58:45;22.47;;;3.83;;
37451;SDS011;23314;51.114;6.900;2023-01-13T11:01:28;15.57;;;3.33;;
37451;SDS011;23314;51.114;6.900;2023-01-13T11:03:54;15.07;;;4.13;;
37451;SDS011;23314;51.114;6.900;2023-01-13T11:06:25;14.23;;;3.60;;
37451;SDS011;23314;51.114;6.900;2023-01-13T11:08:53;12.63;;;3.67;;
37451;SDS011;23314;51.114;6.900;2023-01-13T11:12:04;18.30;;;4.70;;
37451;SDS011;23314;51.114;6.900;2023-01-13T11:14:17;23.57;;;3.97;;
37451;SDS011;23314;51.114;6.900;2023-01-13T11:16:59;15.37;;;3.80;;
37451;SDS011;23314;51.114;6.900;2023-01-13T11:19:34;16.00;;;3.33;;
37451;SDS011;23314;51.114;6.900;2023-01-13T11:22:04;15.20;;;3.77;;
37451;SDS011;23314;51.114;6.900;2023-01-13T11:30:15;11.67;;;3.47;;
37451;SDS011;23314;51.114;6.900;2023-01-13T11:33:06;16.20;;;3.67;;
37451;SDS011;23314;51.114;6.900;2023-01-13T11:35:48;14.87;;;3.60;;
37451;SDS011;23314;51.114;6.900;2023-01-13T11:41:04;15.70;;;3.70;;
37451;SDS011;23314;51.114;6.900;2023-01-13T11:43:48;11.67;;;3.83;;
37451;SDS011;23314;51.114;6.900;2023-01-13T11:46:18;15.20;;;3.50;;
37451;SDS011;23314;51.114;6.900;2023-01-13T11:48:49;16.93;;;3.73;;
37451;SDS011;23314;51.114;6.900;2023-01-13T11:51:28;16.93;;;3.87;;
37451;SDS011;23314;51.114;6.900;2023-01-13T11:54:17;19.40;;;3.77;;
37451;SDS011;23314;51.114;6.900;2023-01-13T11:59:56;18.87;;;3.60;;
37451;SDS011;23314;51.114;6.900;2023-01-13T12:02:49;15.23;;;3.53;;
37451;SDS011;23314;51.114;6.900;2023-01-13T12:08:08;13.70;;;3.43;;
37451;SDS011;23314;51.114;6.900;2023-01-13T12:23:54;11.80;;;3.37;;
37451;SDS011;23314;51.114;6.900;2023-01-13T12:26:29;14.63;;;3.10;;
37451;SDS011;23314;51.114;6.900;2023-01-13T12:29:00;16.53;;;3.47;;
37451;SDS011;23314;51.114;6.900;2023-01-13T12:31:30;13.67;;;2.63;;
37451;SDS011;23314;51.114;6.900;2023-01-13T12:34:04;15.27;;;3.00;;
37451;SDS011;23314;51.114;6.900;2023-01-13T12:36:46;14.20;;;2.67;;
37451;SDS011;23314;51.114;6.900;2023-01-13T12:45:44;14.90;;;2.97;;
37451;SDS011;23314;51.114;6.900;2023-01-13T12:51:19;11.03;;;3.33;;
37451;SDS011;23314;51.114;6.900;2023-01-13T12:53:49;12.37;;;3.20;;
37451;SDS011;23314;51.114;6.900;2023-01-13T13:01:41;15.53;;;3.00;;
37451;SDS011;23314;51.114;6.900;2023-01-13T13:04:11;15.07;;;3.17;;
37451;SDS011;23314;51.114;6.900;2023-01-13T13:06:40;17.67;;;4.23;;
37451;SDS011;23314;51.114;6.900;2023-01-13T13:09:18;13.10;;;2.67;;
37451;SDS011;23314;51.114;6.900;2023-01-13T13:11:54;8.10;;;2.27;;
37451;SDS011;23314;51.114;6.900;2023-01-13T13:19:56;13.53;;;3.00;;
37451;SDS011;23314;51.114;6.900;2023-01-13T13:30:20;16.60;;;3.53;;
37451;SDS011;23314;51.114;6.900;2023-01-13T13:41:40;15.93;;;3.33;;
37451;SDS011;23314;51.114;6.900;2023-01-13T13:44:29;17.40;;;3.53;;
37451;SDS011;23314;51.114;6.900;2023-01-13T13:47:18;16.30;;;3.33;;
37451;SDS011;23314;51.114;6.900;2023-01-13T13:49:44;12.73;;;3.47;;
37451;SDS011;23314;51.114;6.900;2023-01-13T13:52:18;17.73;;;3.80;;
37451;SDS011;23314;51.114;6.900;2023-01-13T13:54:47;13.33;;;3.33;;
37451;SDS011;23314;51.114;6.900;2023-01-13T13:57:24;14.77;;;3.27;;
37451;SDS011;23314;51.114;6.900;2023-01-13T13:59:57;13.37;;;3.27;;
37451;SDS011;23314;51.114;6.900;2023-01-13T14:02:30;9.17;;;2.50;;
37451;SDS011;23314;51.114;6.900;2023-01-13T14:05:33;11.93;;;2.50;;
37451;SDS011;23314;51.114;6.900;2023-01-13T14:08:00;11.93;;;3.17;;
37451;SDS011;23314;51.114;6.900;2023-01-13T14:10:42;10.47;;;2.70;;
37451;SDS011;23314;51.114;6.900;2023-01-13T14:13:12;12.10;;;2.70;;
37451;SDS011;23314;51.114;6.900;2023-01-13T14:15:39;14.83;;;3.20;;
37451;SDS011;23314;51.114;6.900;2023-01-13T14:18:09;9.80;;;2.43;;
37451;SDS011;23314;51.114;6.900;2023-01-13T14:20:37;13.70;;;2.87;;
37451;SDS011;23314;51.114;6.900;2023-01-13T14:23:03;11.27;;;3.23;;
37451;SDS011;23314;51.114;6.900;2023-01-13T14:28:05;17.10;;;3.70;;
37451;SDS011;23314;51.114;6.900;2023-01-13T14:30:41;11.40;;;3.37;;
37451;SDS011;23314;51.114;6.900;2023-01-13T14:33:08;18.07;;;3.40;;
37451;SDS011;23314;51.114;6.900;2023-01-13T14:35:38;17.70;;;4.40;;
37451;SDS011;23314;51.114;6.900;2023-01-13T14:38:04;19.03;;;4.90;;
37451;SDS011;23314;51.114;6.900;2023-01-13T14:43:01;16.70;;;3.70;;
37451;SDS011;23314;51.114;6.900;2023-01-13T14:45:32;13.60;;;3.40;;
37451;SDS011;23314;51.114;6.900;2023-01-13T14:47:57;18.27;;;4.30;;
37451;SDS011;23314;51.114;6.900;2023-01-13T14:50:25;15.00;;;3.67;;
37451;SDS011;23314;51.114;6.900;2023-01-13T14:52:55;16.40;;;3.30;;
37451;SDS011;23314;51.114;6.900;2023-01-13T14:55:34;21.70;;;3.83;;
37451;SDS011;23314;51.114;6.900;2023-01-13T15:00:47;13.63;;;3.10;;
37451;SDS011;23314;51.114;6.900;2023-01-13T15:03:14;15.00;;;3.57;;
37451;SDS011;23314;51.114;6.900;2023-01-13T15:05:41;15.23;;;3.33;;
37451;SDS011;23314;51.114;6.900;2023-01-13T15:16:12;14.37;;;3.67;;
37451;SDS011;23314;51.114;6.900;2023-01-13T15:18:40;12.27;;;3.80;;
37451;SDS011;23314;51.114;6.900;2023-01-13T15:21:06;11.07;;;3.00;;
37451;SDS011;23314;51.114;6.900;2023-01-13T15:23:33;16.60;;;3.70;;
37451;SDS011;23314;51.114;6.900;2023-01-13T15:26:00;12.80;;;3.10;;
37451;SDS011;23314;51.114;6.900;2023-01-13T15:28:25;21.03;;;3.73;;
37451;SDS011;23314;51.114;6.900;2023-01-13T15:30:52;14.67;;;3.13;;
37451;SDS011;23314;51.114;6.900;2023-01-13T15:33:19;16.03;;;3.53;;
37451;SDS011;23314;51.114;6.900;2023-01-13T15:35:46;16.93;;;3.87;;
37451;SDS011;23314;51.114;6.900;2023-01-13T15:38:15;16.67;;;3.37;;
37451;SDS011;23314;51.114;6.900;2023-01-13T15:40:45;15.87;;;3.87;;
37451;SDS011;23314;51.114;6.900;2023-01-13T15:43:16;15.70;;;3.87;;
37451;SDS011;23314;51.114;6.900;2023-01-13T15:46:01;19.90;;;4.63;;
37451;SDS011;23314;51.114;6.900;2023-01-13T15:48:48;18.93;;;4.57;;
37451;SDS011;23314;51.114;6.900;2023-01-13T15:51:14;14.57;;;3.53;;
37451;SDS011;23314;51.114;6.900;2023-01-13T15:53:39;20.03;;;4.00;;
37451;SDS011;23314;51.114;6.900;2023-01-13T15:56:07;16.27;;;3.33;;
37451;SDS011;23314;51.114;6.900;2023-01-13T15:58:39;21.40;;;4.43;;
37451;SDS011;23314;51.114;6.900;2023-01-13T16:01:05;15.53;;;3.80;;
37451;SDS011;23314;51.114;6.900;2023-01-13T16:03:30;18.03;;;4.43;;
37451;SDS011;23314;51.114;6.900;2023-01-13T16:05:55;16.77;;;4.40;;
37451;SDS011;23314;51.114;6.900;2023-01-13T16:08:21;20.83;;;4.43;;
37451;SDS011;23314;51.114;6.900;2023-01-13T16:10:48;19.33;;;4.70;;
37451;SDS011;23314;51.114;6.900;2023-01-13T16:13:14;14.50;;;3.73;;
37451;SDS011;23314;51.114;6.900;2023-01-13T16:15:47;14.23;;;4.17;;
37451;SDS011;23314;51.114;6.900;2023-01-13T16:18:17;17.57;;;4.30;;
37451;SDS011;23314;51.114;6.900;2023-01-13T16:20:45;15.63;;;3.63;;
37451;SDS011;23314;51.114;6.900;2023-01-13T16:23:11;11.33;;;2.73;;
37451;SDS011;23314;51.114;6.900;2023-01-13T16:25:37;11.70;;;3.50;;
37451;SDS011;23314;51.114;6.900;2023-01-13T16:28:04;11.83;;;3.90;;
37451;SDS011;23314;51.114;6.900;2023-01-13T16:30:31;12.57;;;3.20;;
37451;SDS011;23314;51.114;6.900;2023-01-13T16:32:58;7.53;;;2.40;;
37451;SDS011;23314;51.114;6.900;2023-01-13T16:35:24;5.60;;;2.53;;
37451;SDS011;23314;51.114;6.900;2023-01-13T16:37:50;7.10;;;2.37;;
37451;SDS011;23314;51.114;6.900;2023-01-13T16:40:29;8.23;;;2.27;;
37451;SDS011;23314;51.114;6.900;2023-01-13T16:42:57;8.93;;;2.40;;
37451;SDS011;23314;51.114;6.900;2023-01-13T16:45:28;11.10;;;2.27;;
37451;SDS011;23314;51.114;6.900;2023-01-13T16:47:54;12.10;;;2.93;;
37451;SDS011;23314;51.114;6.900;2023-01-13T16:50:22;11.73;;;2.77;;
37451;SDS011;23314;51.114;6.900;2023-01-13T16:52:57;12.60;;;2.70;;
37451;SDS011;23314;51.114;6.900;2023-01-13T16:55:22;11.30;;;3.10;;
37451;SDS011;23314;51.114;6.900;2023-01-13T16:57:48;12.50;;;2.93;;
37451;SDS011;23314;51.114;6.900;2023-01-13T17:00:13;11.13;;;3.17;;
37451;SDS011;23314;51.114;6.900;2023-01-13T17:02:39;11.73;;;3.03;;
37451;SDS011;23314;51.114;6.900;2023-01-13T17:05:05;16.90;;;3.23;;
37451;SDS011;23314;51.114;6.900;2023-01-13T17:07:30;13.27;;;3.97;;
37451;SDS011;23314;51.114;6.900;2023-01-13T17:09:56;19.23;;;4.27;;
37451;SDS011;23314;51.114;6.900;2023-01-13T17:12:21;20.67;;;4.53;;
37451;SDS011;23314;51.114;6.900;2023-01-13T17:14:47;15.63;;;4.37;;
37451;SDS011;23314;51.114;6.900;2023-01-13T17:17:18;18.47;;;3.77;;
37451;SDS011;23314;51.114;6.900;2023-01-13T17:19:51;11.30;;;3.53;;
37451;SDS011;23314;51.114;6.900;2023-01-13T17:22:17;22.60;;;4.40;;